sensor_id;sensor_type;location;lat;lon;timestamp;P1;durP1;ratioP1;P2;durP2;ratioP2
32365;SDS011;18837;46.832;16.838;2023-04-25T00:00:02;1.63;;;0.80;;
32365;SDS011;18837;46.832;16.838;2023-04-25T00:02:31;0.70;;;0.70;;
32365;SDS011;18837;46.832;16.838;2023-04-25T00:04:59;0.70;;;0.70;;
32365;SDS011;18837;46.832;16.838;2023-04-25T00:07:26;0.80;;;0.80;;
32365;SDS011;18837;46.832;16.838;2023-04-25T00:09:52;0.90;;;0.90;;
32365;SDS011;18837;46.832;16.838;2023-04-25T00:12:18;1.10;;;1.00;;
32365;SDS011;18837;46.832;16.838;2023-04-25T00:14:44;0.80;;;0.70;;
32365;SDS011;18837;46.832;16.838;2023-04-25T00:17:10;1.67;;;0.97;;
32365;SDS011;18837;46.832;16.838;2023-04-25T00:19:36;1.00;;;0.90;;
32365;SDS011;18837;46.832;16.838;2023-04-25T00:22:02;0.73;;;0.67;;
32365;SDS011;18837;46.832;16.838;2023-04-25T00:24:28;1.20;;;0.87;;
32365;SDS011;18837;46.832;16.838;2023-04-25T00:26:54;1.63;;;1.20;;
32365;SDS011;18837;46.832;16.838;2023-04-25T00:29:20;0.80;;;0.70;;
32365;SDS011;18837;46.832;16.838;2023-04-25T00:31:46;1.03;;;0.90;;
32365;SDS011;18837;46.832;16.838;2023-04-25T00:34:13;1.00;;;0.90;;
32365;SDS011;18837;46.832;16.838;2023-04-25T00:36:38;1.70;;;0.80;;
32365;SDS011;18837;46.832;16.838;2023-04-25T00:39:04;0.70;;;0.70;;
32365;SDS011;18837;46.832;16.838;2023-04-25T00:41:31;1.70;;;1.00;;
32365;SDS011;18837;46.832;16.838;2023-04-25T00:43:58;0.70;;;0.70;;
32365;SDS011;18837;46.832;16.838;2023-04-25T00:46:25;1.13;;;0.50;;
32365;SDS011;18837;46.832;16.838;2023-04-25T00:48:51;0.80;;;0.80;;
32365;SDS011;18837;46.832;16.838;2023-04-25T00:51:19;0.80;;;0.80;;
32365;SDS011;18837;46.832;16.838;2023-04-25T00:53:46;1.70;;;0.87;;
32365;SDS011;18837;46.832;16.838;2023-04-25T00:56:13;1.30;;;0.93;;
32365;SDS011;18837;46.832;16.838;2023-04-25T00:58:40;0.97;;;0.80;;
32365;SDS011;18837;46.832;16.838;2023-04-25T01:01:07;0.90;;;0.90;;
32365;SDS011;18837;46.832;16.838;2023-04-25T01:03:34;0.80;;;0.80;;
32365;SDS011;18837;46.832;16.838;2023-04-25T01:06:07;1.27;;;1.00;;
32365;SDS011;18837;46.832;16.838;2023-04-25T01:08:36;1.63;;;1.00;;
32365;SDS011;18837;46.832;16.838;2023-04-25T01:11:04;0.90;;;0.80;;
32365;SDS011;18837;46.832;16.838;2023-04-25T01:13:30;0.80;;;0.73;;
32365;SDS011;18837;46.832;16.838;2023-04-25T01:15:57;2.30;;;0.87;;
32365;SDS011;18837;46.832;16.838;2023-04-25T01:18:24;0.93;;;0.87;;
32365;SDS011;18837;46.832;16.838;2023-04-25T01:20:53;1.37;;;1.00;;
32365;SDS011;18837;46.832;16.838;2023-04-25T01:23:20;1.03;;;0.87;;
32365;SDS011;18837;46.832;16.838;2023-04-25T01:25:48;0.93;;;0.87;;
32365;SDS011;18837;46.832;16.838;2023-04-25T01:28:14;0.87;;;0.87;;
32365;SDS011;18837;46.832;16.838;2023-04-25T01:30:41;0.70;;;0.63;;
32365;SDS011;18837;46.832;16.838;2023-04-25T01:33:07;0.97;;;0.87;;
32365;SDS011;18837;46.832;16.838;2023-04-25T01:35:33;1.10;;;1.00;;
32365;SDS011;18837;46.832;16.838;2023-04-25T01:37:59;2.43;;;1.07;;
32365;SDS011;18837;46.832;16.838;2023-04-25T01:40:25;0.70;;;0.70;;
32365;SDS011;18837;46.832;16.838;2023-04-25T01:42:54;1.57;;;1.20;;
32365;SDS011;18837;46.832;16.838;2023-04-25T01:45:20;2.10;;;0.93;;
32365;SDS011;18837;46.832;16.838;2023-04-25T01:47:45;0.70;;;0.70;;
32365;SDS011;18837;46.832;16.838;2023-04-25T01:50:16;0.80;;;0.80;;
32365;SDS011;18837;46.832;16.838;2023-04-25T01:52:43;2.20;;;0.90;;
32365;SDS011;18837;46.832;16.838;2023-04-25T01:55:09;1.57;;;0.90;;
32365;SDS011;18837;46.832;16.838;2023-04-25T01:57:35;0.97;;;0.80;;
32365;SDS011;18837;46.832;16.838;2023-04-25T02:00:02;1.93;;;0.73;;
32365;SDS011;18837;46.832;16.838;2023-04-25T02:02:31;2.23;;;0.80;;
32365;SDS011;18837;46.832;16.838;2023-04-25T02:04:57;1.00;;;0.93;;
32365;SDS011;18837;46.832;16.838;2023-04-25T02:07:25;2.43;;;1.10;;
32365;SDS011;18837;46.832;16.838;2023-04-25T02:09:52;1.57;;;1.13;;
32365;SDS011;18837;46.832;16.838;2023-04-25T02:12:17;2.50;;;0.90;;
32365;SDS011;18837;46.832;16.838;2023-04-25T02:14:43;2.03;;;1.00;;
32365;SDS011;18837;46.832;16.838;2023-04-25T02:17:09;0.93;;;0.90;;
32365;SDS011;18837;46.832;16.838;2023-04-25T02:19:37;1.03;;;1.00;;
32365;SDS011;18837;46.832;16.838;2023-04-25T02:22:03;1.47;;;0.90;;
32365;SDS011;18837;46.832;16.838;2023-04-25T02:24:29;1.10;;;0.90;;
32365;SDS011;18837;46.832;16.838;2023-04-25T02:26:54;1.40;;;1.20;;
32365;SDS011;18837;46.832;16.838;2023-04-25T02:29:21;0.90;;;0.80;;
32365;SDS011;18837;46.832;16.838;2023-04-25T02:31:47;1.20;;;1.10;;
32365;SDS011;18837;46.832;16.838;2023-04-25T02:34:12;1.23;;;1.10;;
32365;SDS011;18837;46.832;16.838;2023-04-25T02:36:38;1.13;;;0.97;;
32365;SDS011;18837;46.832;16.838;2023-04-25T02:39:04;1.67;;;0.97;;
32365;SDS011;18837;46.832;16.838;2023-04-25T02:41:30;1.10;;;1.00;;
32365;SDS011;18837;46.832;16.838;2023-04-25T02:43:56;1.17;;;1.00;;
32365;SDS011;18837;46.832;16.838;2023-04-25T02:46:22;1.00;;;0.90;;
32365;SDS011;18837;46.832;16.838;2023-04-25T02:48:47;1.07;;;0.90;;
32365;SDS011;18837;46.832;16.838;2023-04-25T02:51:13;1.00;;;0.90;;
32365;SDS011;18837;46.832;16.838;2023-04-25T02:53:41;1.30;;;1.17;;
32365;SDS011;18837;46.832;16.838;2023-04-25T02:56:07;1.10;;;1.00;;
32365;SDS011;18837;46.832;16.838;2023-04-25T02:58:33;0.97;;;0.90;;
32365;SDS011;18837;46.832;16.838;2023-04-25T03:00:59;0.80;;;0.80;;
32365;SDS011;18837;46.832;16.838;2023-04-25T03:03:25;1.10;;;0.80;;
32365;SDS011;18837;46.832;16.838;2023-04-25T03:05:51;1.10;;;1.00;;
32365;SDS011;18837;46.832;16.838;2023-04-25T03:11:09;1.13;;;1.00;;
32365;SDS011;18837;46.832;16.838;2023-04-25T03:13:35;1.13;;;1.03;;
32365;SDS011;18837;46.832;16.838;2023-04-25T03:16:01;1.00;;;1.00;;
32365;SDS011;18837;46.832;16.838;2023-04-25T03:18:26;1.30;;;1.20;;
32365;SDS011;18837;46.832;16.838;2023-04-25T03:20:52;1.73;;;1.10;;
32365;SDS011;18837;46.832;16.838;2023-04-25T03:23:18;2.17;;;1.00;;
32365;SDS011;18837;46.832;16.838;2023-04-25T03:25:44;1.63;;;1.17;;
32365;SDS011;18837;46.832;16.838;2023-04-25T03:28:10;1.20;;;1.10;;
32365;SDS011;18837;46.832;16.838;2023-04-25T03:30:36;1.37;;;1.27;;
32365;SDS011;18837;46.832;16.838;2023-04-25T03:33:02;1.93;;;1.17;;
32365;SDS011;18837;46.832;16.838;2023-04-25T03:35:28;1.00;;;1.00;;
32365;SDS011;18837;46.832;16.838;2023-04-25T03:37:53;1.67;;;1.20;;
32365;SDS011;18837;46.832;16.838;2023-04-25T03:40:20;2.50;;;1.30;;
32365;SDS011;18837;46.832;16.838;2023-04-25T03:42:47;1.00;;;0.90;;
32365;SDS011;18837;46.832;16.838;2023-04-25T03:45:13;1.70;;;1.40;;
32365;SDS011;18837;46.832;16.838;2023-04-25T03:47:39;1.63;;;1.20;;
32365;SDS011;18837;46.832;16.838;2023-04-25T03:50:05;1.80;;;0.87;;
32365;SDS011;18837;46.832;16.838;2023-04-25T03:52:31;1.20;;;1.10;;
32365;SDS011;18837;46.832;16.838;2023-04-25T03:54:57;1.47;;;1.27;;
32365;SDS011;18837;46.832;16.838;2023-04-25T03:57:23;1.20;;;1.10;;
32365;SDS011;18837;46.832;16.838;2023-04-25T03:59:49;1.10;;;1.00;;
32365;SDS011;18837;46.832;16.838;2023-04-25T04:02:14;1.53;;;1.00;;
32365;SDS011;18837;46.832;16.838;2023-04-25T04:04:40;1.53;;;1.30;;
32365;SDS011;18837;46.832;16.838;2023-04-25T04:07:09;1.23;;;1.00;;
32365;SDS011;18837;46.832;16.838;2023-04-25T04:09:35;1.27;;;1.17;;
32365;SDS011;18837;46.832;16.838;2023-04-25T04:12:01;1.10;;;1.00;;
32365;SDS011;18837;46.832;16.838;2023-04-25T04:14:27;1.40;;;0.90;;
32365;SDS011;18837;46.832;16.838;2023-04-25T04:16:55;0.93;;;0.93;;
32365;SDS011;18837;46.832;16.838;2023-04-25T04:19:20;1.13;;;1.03;;
32365;SDS011;18837;46.832;16.838;2023-04-25T04:21:46;0.90;;;0.90;;
32365;SDS011;18837;46.832;16.838;2023-04-25T04:24:12;1.00;;;1.00;;
32365;SDS011;18837;46.832;16.838;2023-04-25T04:26:38;1.23;;;1.13;;
32365;SDS011;18837;46.832;16.838;2023-04-25T04:29:04;1.23;;;1.13;;
32365;SDS011;18837;46.832;16.838;2023-04-25T04:31:30;2.03;;;1.00;;
32365;SDS011;18837;46.832;16.838;2023-04-25T04:33:57;3.13;;;1.27;;
32365;SDS011;18837;46.832;16.838;2023-04-25T04:36:22;1.77;;;1.10;;
32365;SDS011;18837;46.832;16.838;2023-04-25T04:38:51;1.00;;;0.80;;
32365;SDS011;18837;46.832;16.838;2023-04-25T04:41:17;1.10;;;1.00;;
32365;SDS011;18837;46.832;16.838;2023-04-25T04:43:44;1.10;;;1.00;;
32365;SDS011;18837;46.832;16.838;2023-04-25T04:46:10;0.87;;;0.87;;
32365;SDS011;18837;46.832;16.838;2023-04-25T04:48:37;1.00;;;1.00;;
32365;SDS011;18837;46.832;16.838;2023-04-25T04:51:06;1.43;;;0.90;;
32365;SDS011;18837;46.832;16.838;2023-04-25T04:53:32;1.10;;;1.00;;
32365;SDS011;18837;46.832;16.838;2023-04-25T04:55:58;2.40;;;1.00;;
32365;SDS011;18837;46.832;16.838;2023-04-25T04:58:23;0.80;;;0.80;;
32365;SDS011;18837;46.832;16.838;2023-04-25T05:00:54;1.20;;;1.10;;
32365;SDS011;18837;46.832;16.838;2023-04-25T05:03:20;1.50;;;1.27;;
32365;SDS011;18837;46.832;16.838;2023-04-25T05:05:45;1.13;;;1.03;;
32365;SDS011;18837;46.832;16.838;2023-04-25T05:08:11;1.03;;;1.00;;
32365;SDS011;18837;46.832;16.838;2023-04-25T05:10:37;0.77;;;0.77;;
32365;SDS011;18837;46.832;16.838;2023-04-25T05:13:03;3.20;;;1.37;;
32365;SDS011;18837;46.832;16.838;2023-04-25T05:15:28;1.73;;;1.33;;
32365;SDS011;18837;46.832;16.838;2023-04-25T05:17:54;1.37;;;1.27;;
32365;SDS011;18837;46.832;16.838;2023-04-25T05:20:20;1.30;;;1.20;;
32365;SDS011;18837;46.832;16.838;2023-04-25T05:22:46;1.30;;;1.20;;
32365;SDS011;18837;46.832;16.838;2023-04-25T05:25:12;1.70;;;1.20;;
32365;SDS011;18837;46.832;16.838;2023-04-25T05:27:38;1.40;;;1.13;;
32365;SDS011;18837;46.832;16.838;2023-04-25T05:30:04;8.80;;;2.27;;
32365;SDS011;18837;46.832;16.838;2023-04-25T05:32:31;17.40;;;2.47;;
32365;SDS011;18837;46.832;16.838;2023-04-25T05:34:57;10.53;;;2.40;;
32365;SDS011;18837;46.832;16.838;2023-04-25T05:37:22;9.60;;;1.63;;
32365;SDS011;18837;46.832;16.838;2023-04-25T05:39:48;8.67;;;1.90;;
32365;SDS011;18837;46.832;16.838;2023-04-25T05:42:14;5.33;;;2.10;;
32365;SDS011;18837;46.832;16.838;2023-04-25T05:44:40;5.33;;;2.10;;
32365;SDS011;18837;46.832;16.838;2023-04-25T05:47:05;2.43;;;1.70;;
32365;SDS011;18837;46.832;16.838;2023-04-25T05:49:31;7.03;;;1.83;;
32365;SDS011;18837;46.832;16.838;2023-04-25T05:51:59;4.83;;;1.70;;
32365;SDS011;18837;46.832;16.838;2023-04-25T05:54:24;6.03;;;1.90;;
32365;SDS011;18837;46.832;16.838;2023-04-25T05:56:50;4.00;;;1.60;;
32365;SDS011;18837;46.832;16.838;2023-04-25T05:59:16;4.57;;;1.90;;
32365;SDS011;18837;46.832;16.838;2023-04-25T06:01:42;6.33;;;1.80;;
32365;SDS011;18837;46.832;16.838;2023-04-25T06:04:08;3.80;;;1.53;;
32365;SDS011;18837;46.832;16.838;2023-04-25T06:06:34;2.93;;;1.30;;
32365;SDS011;18837;46.832;16.838;2023-04-25T06:08:59;4.40;;;1.63;;
32365;SDS011;18837;46.832;16.838;2023-04-25T06:11:25;2.77;;;1.70;;
32365;SDS011;18837;46.832;16.838;2023-04-25T06:13:51;4.30;;;1.70;;
32365;SDS011;18837;46.832;16.838;2023-04-25T06:16:17;5.93;;;2.10;;
32365;SDS011;18837;46.832;16.838;2023-04-25T06:18:43;2.03;;;1.60;;
32365;SDS011;18837;46.832;16.838;2023-04-25T06:21:09;3.17;;;1.80;;
32365;SDS011;18837;46.832;16.838;2023-04-25T06:23:34;2.47;;;1.40;;
32365;SDS011;18837;46.832;16.838;2023-04-25T06:26:00;7.23;;;1.80;;
32365;SDS011;18837;46.832;16.838;2023-04-25T06:28:26;5.27;;;2.10;;
32365;SDS011;18837;46.832;16.838;2023-04-25T06:30:51;2.83;;;1.80;;
32365;SDS011;18837;46.832;16.838;2023-04-25T06:33:17;2.50;;;1.80;;
32365;SDS011;18837;46.832;16.838;2023-04-25T06:35:43;2.20;;;1.80;;
32365;SDS011;18837;46.832;16.838;2023-04-25T06:38:09;2.37;;;1.63;;
32365;SDS011;18837;46.832;16.838;2023-04-25T06:40:35;2.90;;;1.70;;
32365;SDS011;18837;46.832;16.838;2023-04-25T06:43:00;4.63;;;1.40;;
32365;SDS011;18837;46.832;16.838;2023-04-25T06:45:26;1.97;;;1.60;;
32365;SDS011;18837;46.832;16.838;2023-04-25T06:47:52;2.53;;;1.60;;
32365;SDS011;18837;46.832;16.838;2023-04-25T06:50:18;3.70;;;1.67;;
32365;SDS011;18837;46.832;16.838;2023-04-25T06:52:44;3.40;;;1.70;;
32365;SDS011;18837;46.832;16.838;2023-04-25T06:55:10;1.90;;;1.70;;
32365;SDS011;18837;46.832;16.838;2023-04-25T06:57:35;2.20;;;1.73;;
32365;SDS011;18837;46.832;16.838;2023-04-25T07:00:02;3.10;;;1.43;;
32365;SDS011;18837;46.832;16.838;2023-04-25T07:02:30;3.63;;;1.70;;
32365;SDS011;18837;46.832;16.838;2023-04-25T07:04:56;2.47;;;1.60;;
32365;SDS011;18837;46.832;16.838;2023-04-25T07:07:25;1.53;;;1.43;;
32365;SDS011;18837;46.832;16.838;2023-04-25T07:09:51;4.63;;;1.40;;
32365;SDS011;18837;46.832;16.838;2023-04-25T07:12:17;2.67;;;1.60;;
32365;SDS011;18837;46.832;16.838;2023-04-25T07:14:43;1.77;;;1.50;;
32365;SDS011;18837;46.832;16.838;2023-04-25T07:17:08;1.73;;;1.40;;
32365;SDS011;18837;46.832;16.838;2023-04-25T07:19:34;2.70;;;1.60;;
32365;SDS011;18837;46.832;16.838;2023-04-25T07:22:02;1.90;;;1.70;;
32365;SDS011;18837;46.832;16.838;2023-04-25T07:24:34;1.97;;;1.50;;
32365;SDS011;18837;46.832;16.838;2023-04-25T07:27:03;1.70;;;1.60;;
32365;SDS011;18837;46.832;16.838;2023-04-25T07:29:29;1.87;;;1.40;;
32365;SDS011;18837;46.832;16.838;2023-04-25T07:31:56;2.00;;;1.40;;
32365;SDS011;18837;46.832;16.838;2023-04-25T07:34:21;3.90;;;1.30;;
32365;SDS011;18837;46.832;16.838;2023-04-25T07:36:47;1.50;;;1.40;;
32365;SDS011;18837;46.832;16.838;2023-04-25T07:39:13;2.23;;;1.57;;
32365;SDS011;18837;46.832;16.838;2023-04-25T07:41:38;1.73;;;1.40;;
32365;SDS011;18837;46.832;16.838;2023-04-25T07:44:04;2.27;;;1.50;;
32365;SDS011;18837;46.832;16.838;2023-04-25T07:46:30;2.90;;;1.60;;
32365;SDS011;18837;46.832;16.838;2023-04-25T07:48:56;1.60;;;1.20;;
32365;SDS011;18837;46.832;16.838;2023-04-25T07:51:22;2.23;;;1.20;;
32365;SDS011;18837;46.832;16.838;2023-04-25T07:53:48;1.87;;;1.33;;
32365;SDS011;18837;46.832;16.838;2023-04-25T07:56:14;1.13;;;1.07;;
32365;SDS011;18837;46.832;16.838;2023-04-25T07:58:40;1.53;;;1.40;;
32365;SDS011;18837;46.832;16.838;2023-04-25T08:01:05;1.33;;;1.23;;
32365;SDS011;18837;46.832;16.838;2023-04-25T08:03:32;2.47;;;1.63;;
32365;SDS011;18837;46.832;16.838;2023-04-25T08:05:57;1.67;;;1.40;;
32365;SDS011;18837;46.832;16.838;2023-04-25T08:08:23;1.30;;;1.17;;
32365;SDS011;18837;46.832;16.838;2023-04-25T08:10:49;1.57;;;1.30;;
32365;SDS011;18837;46.832;16.838;2023-04-25T08:13:15;1.23;;;1.13;;
32365;SDS011;18837;46.832;16.838;2023-04-25T08:15:41;1.53;;;1.40;;
32365;SDS011;18837;46.832;16.838;2023-04-25T08:18:07;1.33;;;1.17;;
32365;SDS011;18837;46.832;16.838;2023-04-25T08:20:33;2.43;;;1.20;;
32365;SDS011;18837;46.832;16.838;2023-04-25T08:22:58;1.53;;;1.23;;
32365;SDS011;18837;46.832;16.838;2023-04-25T08:25:25;1.63;;;1.27;;
32365;SDS011;18837;46.832;16.838;2023-04-25T08:27:50;1.57;;;1.47;;
32365;SDS011;18837;46.832;16.838;2023-04-25T08:30:16;1.60;;;1.37;;
32365;SDS011;18837;46.832;16.838;2023-04-25T08:32:42;1.70;;;1.60;;
32365;SDS011;18837;46.832;16.838;2023-04-25T08:35:08;1.50;;;1.20;;
32365;SDS011;18837;46.832;16.838;2023-04-25T08:37:34;1.20;;;1.10;;
32365;SDS011;18837;46.832;16.838;2023-04-25T08:40:01;0.97;;;0.80;;
32365;SDS011;18837;46.832;16.838;2023-04-25T08:42:32;1.50;;;1.20;;
32365;SDS011;18837;46.832;16.838;2023-04-25T08:45:00;1.30;;;1.13;;
32365;SDS011;18837;46.832;16.838;2023-04-25T08:47:27;1.40;;;1.10;;
32365;SDS011;18837;46.832;16.838;2023-04-25T08:49:58;2.47;;;1.20;;
32365;SDS011;18837;46.832;16.838;2023-04-25T08:52:28;1.20;;;1.10;;
32365;SDS011;18837;46.832;16.838;2023-04-25T08:54:57;2.63;;;1.10;;
32365;SDS011;18837;46.832;16.838;2023-04-25T08:57:25;1.10;;;1.00;;
32365;SDS011;18837;46.832;16.838;2023-04-25T08:59:52;1.07;;;1.00;;
32365;SDS011;18837;46.832;16.838;2023-04-25T09:02:19;1.10;;;1.00;;
32365;SDS011;18837;46.832;16.838;2023-04-25T09:04:45;1.17;;;1.07;;
32365;SDS011;18837;46.832;16.838;2023-04-25T09:07:11;1.73;;;1.30;;
32365;SDS011;18837;46.832;16.838;2023-04-25T09:09:40;1.50;;;1.10;;
32365;SDS011;18837;46.832;16.838;2023-04-25T09:12:06;1.13;;;1.00;;
32365;SDS011;18837;46.832;16.838;2023-04-25T09:14:32;1.33;;;1.23;;
32365;SDS011;18837;46.832;16.838;2023-04-25T09:16:59;1.57;;;1.10;;
32365;SDS011;18837;46.832;16.838;2023-04-25T09:19:31;1.30;;;1.03;;
32365;SDS011;18837;46.832;16.838;2023-04-25T09:21:59;1.70;;;1.07;;
32365;SDS011;18837;46.832;16.838;2023-04-25T09:24:39;1.57;;;1.00;;
32365;SDS011;18837;46.832;16.838;2023-04-25T09:27:10;1.03;;;0.97;;
32365;SDS011;18837;46.832;16.838;2023-04-25T09:29:40;1.60;;;1.10;;
32365;SDS011;18837;46.832;16.838;2023-04-25T09:32:20;1.10;;;1.00;;
32365;SDS011;18837;46.832;16.838;2023-04-25T09:34:47;1.20;;;1.00;;
32365;SDS011;18837;46.832;16.838;2023-04-25T09:37:18;1.13;;;0.90;;
32365;SDS011;18837;46.832;16.838;2023-04-25T09:39:47;0.90;;;0.90;;
32365;SDS011;18837;46.832;16.838;2023-04-25T09:42:15;1.20;;;1.10;;
32365;SDS011;18837;46.832;16.838;2023-04-25T09:44:45;0.90;;;0.90;;
32365;SDS011;18837;46.832;16.838;2023-04-25T09:47:12;0.90;;;0.90;;
32365;SDS011;18837;46.832;16.838;2023-04-25T09:49:40;1.00;;;1.00;;
32365;SDS011;18837;46.832;16.838;2023-04-25T09:52:08;1.40;;;0.80;;
32365;SDS011;18837;46.832;16.838;2023-04-25T09:54:34;1.10;;;1.00;;
32365;SDS011;18837;46.832;16.838;2023-04-25T09:57:04;1.83;;;1.00;;
32365;SDS011;18837;46.832;16.838;2023-04-25T09:59:44;0.97;;;0.90;;
32365;SDS011;18837;46.832;16.838;2023-04-25T10:02:13;2.37;;;1.10;;
32365;SDS011;18837;46.832;16.838;2023-04-25T10:04:40;1.10;;;0.90;;
32365;SDS011;18837;46.832;16.838;2023-04-25T10:07:07;0.87;;;0.87;;
32365;SDS011;18837;46.832;16.838;2023-04-25T10:09:36;1.17;;;0.97;;
32365;SDS011;18837;46.832;16.838;2023-04-25T10:12:04;1.67;;;0.90;;
32365;SDS011;18837;46.832;16.838;2023-04-25T10:14:31;1.20;;;1.10;;
32365;SDS011;18837;46.832;16.838;2023-04-25T10:16:59;0.80;;;0.80;;
32365;SDS011;18837;46.832;16.838;2023-04-25T10:19:26;1.20;;;1.10;;
32365;SDS011;18837;46.832;16.838;2023-04-25T10:25:07;1.03;;;1.00;;
32365;SDS011;18837;46.832;16.838;2023-04-25T10:27:33;1.10;;;1.00;;
32365;SDS011;18837;46.832;16.838;2023-04-25T10:30:09;1.20;;;0.90;;
32365;SDS011;18837;46.832;16.838;2023-04-25T10:32:41;1.07;;;0.97;;
32365;SDS011;18837;46.832;16.838;2023-04-25T10:35:11;0.80;;;0.80;;
32365;SDS011;18837;46.832;16.838;2023-04-25T10:37:37;1.63;;;1.00;;
32365;SDS011;18837;46.832;16.838;2023-04-25T10:40:10;0.80;;;0.80;;
32365;SDS011;18837;46.832;16.838;2023-04-25T10:42:36;1.10;;;0.90;;
32365;SDS011;18837;46.832;16.838;2023-04-25T10:45:04;1.50;;;1.20;;
32365;SDS011;18837;46.832;16.838;2023-04-25T10:47:37;1.43;;;1.00;;
32365;SDS011;18837;46.832;16.838;2023-04-25T10:50:09;1.10;;;1.00;;
32365;SDS011;18837;46.832;16.838;2023-04-25T10:52:36;1.10;;;1.00;;
32365;SDS011;18837;46.832;16.838;2023-04-25T10:55:05;1.00;;;0.93;;
32365;SDS011;18837;46.832;16.838;2023-04-25T10:57:32;1.80;;;1.30;;
32365;SDS011;18837;46.832;16.838;2023-04-25T11:02:37;1.10;;;1.00;;
32365;SDS011;18837;46.832;16.838;2023-04-25T11:05:05;1.63;;;1.00;;
32365;SDS011;18837;46.832;16.838;2023-04-25T11:07:45;2.00;;;1.00;;
32365;SDS011;18837;46.832;16.838;2023-04-25T11:10:16;1.33;;;1.00;;
32365;SDS011;18837;46.832;16.838;2023-04-25T11:12:44;0.90;;;0.90;;
32365;SDS011;18837;46.832;16.838;2023-04-25T11:15:11;1.30;;;1.10;;
32365;SDS011;18837;46.832;16.838;2023-04-25T11:17:38;1.33;;;1.00;;
32365;SDS011;18837;46.832;16.838;2023-04-25T11:20:05;1.27;;;0.80;;
32365;SDS011;18837;46.832;16.838;2023-04-25T11:22:36;1.00;;;1.00;;
32365;SDS011;18837;46.832;16.838;2023-04-25T11:25:04;1.20;;;1.10;;
32365;SDS011;18837;46.832;16.838;2023-04-25T11:27:31;0.90;;;0.90;;
32365;SDS011;18837;46.832;16.838;2023-04-25T11:29:57;0.93;;;0.93;;
32365;SDS011;18837;46.832;16.838;2023-04-25T11:32:23;1.10;;;1.00;;
32365;SDS011;18837;46.832;16.838;2023-04-25T11:34:48;2.30;;;1.10;;
32365;SDS011;18837;46.832;16.838;2023-04-25T11:37:14;1.10;;;1.00;;
32365;SDS011;18837;46.832;16.838;2023-04-25T11:39:44;1.17;;;0.90;;
32365;SDS011;18837;46.832;16.838;2023-04-25T11:42:13;0.90;;;0.90;;
32365;SDS011;18837;46.832;16.838;2023-04-25T11:44:39;1.40;;;1.00;;
32365;SDS011;18837;46.832;16.838;2023-04-25T11:47:05;1.50;;;1.17;;
32365;SDS011;18837;46.832;16.838;2023-04-25T11:49:31;1.33;;;0.97;;
32365;SDS011;18837;46.832;16.838;2023-04-25T11:51:57;1.20;;;1.10;;
32365;SDS011;18837;46.832;16.838;2023-04-25T11:54:23;1.33;;;1.07;;
32365;SDS011;18837;46.832;16.838;2023-04-25T11:56:49;0.97;;;0.90;;
32365;SDS011;18837;46.832;16.838;2023-04-25T11:59:15;1.00;;;0.90;;
32365;SDS011;18837;46.832;16.838;2023-04-25T12:01:47;0.90;;;0.90;;
32365;SDS011;18837;46.832;16.838;2023-04-25T12:04:21;1.20;;;1.10;;
32365;SDS011;18837;46.832;16.838;2023-04-25T12:06:48;1.30;;;1.00;;
32365;SDS011;18837;46.832;16.838;2023-04-25T12:09:19;0.97;;;0.97;;
32365;SDS011;18837;46.832;16.838;2023-04-25T12:11:53;0.80;;;0.80;;
32365;SDS011;18837;46.832;16.838;2023-04-25T12:14:30;1.10;;;1.00;;
32365;SDS011;18837;46.832;16.838;2023-04-25T12:16:58;1.07;;;1.07;;
32365;SDS011;18837;46.832;16.838;2023-04-25T12:19:25;1.10;;;1.00;;
32365;SDS011;18837;46.832;16.838;2023-04-25T12:21:56;1.03;;;0.97;;
32365;SDS011;18837;46.832;16.838;2023-04-25T12:24:23;1.10;;;0.93;;
32365;SDS011;18837;46.832;16.838;2023-04-25T12:29:27;1.17;;;1.07;;
32365;SDS011;18837;46.832;16.838;2023-04-25T12:31:56;1.63;;;1.00;;
32365;SDS011;18837;46.832;16.838;2023-04-25T12:34:22;0.90;;;0.90;;
32365;SDS011;18837;46.832;16.838;2023-04-25T12:36:49;1.23;;;1.13;;
32365;SDS011;18837;46.832;16.838;2023-04-25T12:39:20;1.03;;;0.90;;
32365;SDS011;18837;46.832;16.838;2023-04-25T12:41:50;1.20;;;1.03;;
32365;SDS011;18837;46.832;16.838;2023-04-25T12:44:18;1.13;;;1.00;;
32365;SDS011;18837;46.832;16.838;2023-04-25T12:46:45;0.90;;;0.90;;
32365;SDS011;18837;46.832;16.838;2023-04-25T12:49:11;1.30;;;1.10;;
32365;SDS011;18837;46.832;16.838;2023-04-25T12:51:37;0.90;;;0.90;;
32365;SDS011;18837;46.832;16.838;2023-04-25T12:54:04;0.87;;;0.87;;
32365;SDS011;18837;46.832;16.838;2023-04-25T12:56:34;2.40;;;1.10;;
32365;SDS011;18837;46.832;16.838;2023-04-25T12:59:00;1.10;;;1.00;;
32365;SDS011;18837;46.832;16.838;2023-04-25T13:01:27;1.37;;;1.00;;
32365;SDS011;18837;46.832;16.838;2023-04-25T13:03:53;1.23;;;0.80;;
32365;SDS011;18837;46.832;16.838;2023-04-25T13:06:19;0.93;;;0.93;;
32365;SDS011;18837;46.832;16.838;2023-04-25T13:08:45;1.17;;;0.97;;
32365;SDS011;18837;46.832;16.838;2023-04-25T13:11:11;1.07;;;0.97;;
32365;SDS011;18837;46.832;16.838;2023-04-25T13:13:39;1.10;;;1.00;;
32365;SDS011;18837;46.832;16.838;2023-04-25T13:16:05;1.03;;;1.00;;
32365;SDS011;18837;46.832;16.838;2023-04-25T13:18:32;1.00;;;1.00;;
32365;SDS011;18837;46.832;16.838;2023-04-25T13:20:58;1.43;;;1.20;;
32365;SDS011;18837;46.832;16.838;2023-04-25T13:23:25;1.40;;;1.00;;
32365;SDS011;18837;46.832;16.838;2023-04-25T13:25:52;1.60;;;1.00;;
32365;SDS011;18837;46.832;16.838;2023-04-25T13:28:18;0.90;;;0.90;;
32365;SDS011;18837;46.832;16.838;2023-04-25T13:30:44;1.10;;;1.00;;
32365;SDS011;18837;46.832;16.838;2023-04-25T13:33:10;1.10;;;1.00;;
32365;SDS011;18837;46.832;16.838;2023-04-25T13:35:37;0.90;;;0.90;;
32365;SDS011;18837;46.832;16.838;2023-04-25T13:38:03;0.90;;;0.83;;
32365;SDS011;18837;46.832;16.838;2023-04-25T13:40:29;1.17;;;0.90;;
32365;SDS011;18837;46.832;16.838;2023-04-25T13:42:55;0.90;;;0.80;;
32365;SDS011;18837;46.832;16.838;2023-04-25T13:45:21;0.83;;;0.83;;
32365;SDS011;18837;46.832;16.838;2023-04-25T13:47:47;0.77;;;0.77;;
32365;SDS011;18837;46.832;16.838;2023-04-25T13:50:13;2.37;;;0.90;;
32365;SDS011;18837;46.832;16.838;2023-04-25T13:52:40;2.33;;;0.90;;
32365;SDS011;18837;46.832;16.838;2023-04-25T13:55:07;1.10;;;1.00;;
32365;SDS011;18837;46.832;16.838;2023-04-25T13:57:33;1.47;;;0.93;;
32365;SDS011;18837;46.832;16.838;2023-04-25T14:00:00;2.37;;;1.00;;
32365;SDS011;18837;46.832;16.838;2023-04-25T14:02:32;1.90;;;1.10;;
32365;SDS011;18837;46.832;16.838;2023-04-25T14:04:58;1.97;;;1.10;;
32365;SDS011;18837;46.832;16.838;2023-04-25T14:07:24;1.80;;;1.23;;
32365;SDS011;18837;46.832;16.838;2023-04-25T14:09:50;3.80;;;1.20;;
32365;SDS011;18837;46.832;16.838;2023-04-25T14:12:16;1.87;;;0.93;;
32365;SDS011;18837;46.832;16.838;2023-04-25T14:14:41;1.30;;;1.17;;
32365;SDS011;18837;46.832;16.838;2023-04-25T14:17:08;2.20;;;1.10;;
32365;SDS011;18837;46.832;16.838;2023-04-25T14:19:34;4.80;;;1.70;;
32365;SDS011;18837;46.832;16.838;2023-04-25T14:22:00;2.60;;;1.33;;
32365;SDS011;18837;46.832;16.838;2023-04-25T14:24:26;1.73;;;1.30;;
32365;SDS011;18837;46.832;16.838;2023-04-25T14:26:52;2.47;;;1.53;;
32365;SDS011;18837;46.832;16.838;2023-04-25T14:29:18;2.23;;;1.60;;
32365;SDS011;18837;46.832;16.838;2023-04-25T14:31:44;2.97;;;1.60;;
32365;SDS011;18837;46.832;16.838;2023-04-25T14:34:10;3.63;;;1.93;;
32365;SDS011;18837;46.832;16.838;2023-04-25T14:36:36;3.83;;;1.77;;
32365;SDS011;18837;46.832;16.838;2023-04-25T14:39:02;3.20;;;2.07;;
32365;SDS011;18837;46.832;16.838;2023-04-25T14:41:30;4.70;;;1.67;;